Time;durP1;ratioP1;P1;durP2;ratioP2;P2;SDS_P1;SDS_P2;PMS_P1;PMS_P2;Temp;Humidity;BMP_temperature;BMP_pressure;BME280_temperature;BME280_humidity;BME280_pressure;Samples;Min_cycle;Max_cycle;Signal;HPM_P1;HPM_P2
2023/09/29 00:02:50;;;;;;;53.03;21.17;;;;;;;;;;10440124;22;20022;-92
2023/09/29 00:06:53;;;;;;;49.53;20.70;;;;;;;;;;10456855;22;20023;-89
2023/09/29 00:10:56;;;;;;;47.65;18.30;;;;;;;;;;10439871;22;20019;-89
2023/09/29 00:14:59;;;;;;;44.47;17.75;;;;;;;;;;10439831;22;20026;-92
2023/09/29 00:19:03;;;;;;;56.35;21.17;;;;;;;;;;10440014;22;20094;-92
2023/09/29 00:23:06;;;;;;;49.53;19.30;;;;;;;;;;10439573;22;20015;-92
2023/09/29 00:27:09;;;;;;;46.03;19.63;;;;;;;;;;10439487;22;20098;-93
2023/09/29 00:31:15;;;;;;;51.03;19.88;;;;;;;;;;10439696;22;20023;-88
2023/09/29 00:35:24;;;;;;;56.28;21.85;;;;;;;;;;10456911;22;20026;-92
2023/09/29 00:39:26;;;;;;;51.33;21.38;;;;;;;;;;10456632;22;20439;-93
2023/09/29 00:43:29;;;;;;;50.38;20.38;;;;;;;;;;10412030;22;20455;-91
2023/09/29 00:47:33;;;;;;;48.88;19.65;;;;;;;;;;10439293;22;20041;-88
2023/09/29 00:51:37;;;;;;;54.28;19.77;;;;;;;;;;10439375;22;20015;-93
2023/09/29 00:55:41;;;;;;;53.25;19.67;;;;;;;;;;10439200;22;20106;-92
2023/09/29 00:59:46;;;;;;;50.22;18.58;;;;;;;;;;10439338;22;20023;-93
2023/09/29 01:03:50;;;;;;;50.35;19.73;;;;;;;;;;10439043;22;20317;-90
2023/09/29 01:07:55;;;;;;;49.88;19.92;;;;;;;;;;10439438;22;20019;-91
2023/09/29 01:12:00;;;;;;;49.03;19.30;;;;;;;;;;10439031;22;20487;-92
2023/09/29 01:16:02;;;;;;;48.03;20.92;;;;;;;;;;10456409;22;20054;-90
2023/09/29 01:20:12;;;;;;;47.80;19.58;;;;;;;;;;10411896;22;20098;-89
2023/09/29 01:24:16;;;;;;;41.53;18.20;;;;;;;;;;10453790;22;20102;-92
2023/09/29 01:28:19;;;;;;;47.55;19.40;;;;;;;;;;10456228;22;20026;-90
2023/09/29 01:32:22;;;;;;;44.67;19.73;;;;;;;;;;10439392;22;20047;-88
2023/09/29 01:36:24;;;;;;;42.92;18.08;;;;;;;;;;10439147;22;20478;-92
2023/09/29 01:40:29;;;;;;;45.85;18.45;;;;;;;;;;10439292;22;20366;-92
2023/09/29 01:44:32;;;;;;;42.92;19.83;;;;;;;;;;10438779;22;20026;-93
2023/09/29 01:48:35;;;;;;;43.58;18.08;;;;;;;;;;10441569;22;20316;-92
2023/09/29 01:52:38;;;;;;;60.10;22.15;;;;;;;;;;10473486;22;20354;-85
2023/09/29 01:56:43;;;;;;;57.85;20.85;;;;;;;;;;10473554;22;20030;-89
2023/09/29 02:00:46;;;;;;;60.70;22.92;;;;;;;;;;10469278;22;20022;-87
2023/09/29 02:04:49;;;;;;;64.60;22.60;;;;;;;;;;10468651;22;20064;-92
2023/09/29 02:08:51;;;;;;;60.72;22.92;;;;;;;;;;10447565;22;20019;-90
2023/09/29 02:12:58;;;;;;;55.22;20.10;;;;;;;;;;10441954;22;20023;-92
2023/09/29 02:17:01;;;;;;;61.00;21.65;;;;;;;;;;10459234;22;20055;-92
2023/09/29 02:21:06;;;;;;;57.22;21.70;;;;;;;;;;10441916;22;20386;-91
2023/09/29 02:25:14;;;;;;;51.63;19.58;;;;;;;;;;10441696;22;20049;-92
2023/09/29 02:29:17;;;;;;;54.08;20.23;;;;;;;;;;10459162;22;20100;-94
2023/09/29 02:33:20;;;;;;;56.45;20.38;;;;;;;;;;10441865;22;20165;-88
2023/09/29 02:37:23;;;;;;;56.75;20.98;;;;;;;;;;10441944;22;20476;-92
2023/09/29 02:41:26;;;;;;;50.13;18.52;;;;;;;;;;10441439;22;20015;-93
2023/09/29 02:45:30;;;;;;;59.20;21.65;;;;;;;;;;10441801;22;20504;-93
2023/09/29 02:49:33;;;;;;;53.30;20.08;;;;;;;;;;10441746;22;20039;-90
2023/09/29 02:53:36;;;;;;;50.67;19.15;;;;;;;;;;10441840;22;20436;-93
2023/09/29 02:57:40;;;;;;;46.53;18.98;;;;;;;;;;10441450;22;20015;-89
2023/09/29 03:01:45;;;;;;;53.92;20.73;;;;;;;;;;10441524;22;20094;-90
2023/09/29 03:05:48;;;;;;;55.28;20.52;;;;;;;;;;10440999;22;20015;-93
2023/09/29 03:09:51;;;;;;;53.70;20.58;;;;;;;;;;10440649;22;20026;-87
2023/09/29 03:13:55;;;;;;;48.05;18.88;;;;;;;;;;10441375;22;20047;-92
2023/09/29 03:17:59;;;;;;;56.33;20.52;;;;;;;;;;10441149;22;20039;-89
2023/09/29 03:22:03;;;;;;;54.05;21.48;;;;;;;;;;10439888;22;20110;-89
2023/09/29 03:26:08;;;;;;;47.10;17.88;;;;;;;;;;10439756;22;20025;-93
2023/09/29 03:30:11;;;;;;;48.80;19.52;;;;;;;;;;10446182;22;20094;-90
2023/09/29 03:34:19;;;;;;;51.70;19.20;;;;;;;;;;10461984;22;20082;-91
2023/09/29 03:38:24;;;;;;;54.47;20.48;;;;;;;;;;10458972;22;20426;-92
2023/09/29 03:42:29;;;;;;;56.38;19.65;;;;;;;;;;10441445;22;20381;-89
2023/09/29 03:46:32;;;;;;;55.88;20.42;;;;;;;;;;10440651;22;20099;-94
2023/09/29 03:50:37;;;;;;;42.75;17.75;;;;;;;;;;10440401;22;20022;-93
2023/09/29 03:54:39;;;;;;;50.47;19.17;;;;;;;;;;10439714;22;20094;-92
2023/09/29 03:58:42;;;;;;;47.72;19.48;;;;;;;;;;10436614;22;20077;-92
2023/09/29 04:02:49;;;;;;;52.20;18.27;;;;;;;;;;10440468;22;20447;-89
2023/09/29 04:06:54;;;;;;;52.95;19.15;;;;;;;;;;10456566;22;20056;-90
2023/09/29 04:10:57;;;;;;;51.97;20.20;;;;;;;;;;10439532;22;20023;-91
2023/09/29 04:15:00;;;;;;;46.90;17.73;;;;;;;;;;10439476;22;20019;-93
2023/09/29 04:19:02;;;;;;;48.55;20.15;;;;;;;;;;10439862;22;20037;-90
2023/09/29 04:23:08;;;;;;;52.25;19.80;;;;;;;;;;10440003;22;20044;-93
2023/09/29 04:27:11;;;;;;;54.83;20.85;;;;;;;;;;10438866;22;20102;-91
2023/09/29 04:31:14;;;;;;;53.17;19.13;;;;;;;;;;10439656;22;20055;-92
2023/09/29 04:35:18;;;;;;;58.53;21.08;;;;;;;;;;10438832;22;20074;-92
2023/09/29 04:39:22;;;;;;;51.70;19.58;;;;;;;;;;10439153;22;20073;-92
2023/09/29 04:43:28;;;;;;;48.45;20.50;;;;;;;;;;10438288;22;20386;-90
2023/09/29 04:47:31;;;;;;;62.05;21.77;;;;;;;;;;10456519;22;20430;-90
2023/09/29 04:51:36;;;;;;;44.70;18.80;;;;;;;;;;10439141;22;20092;-90
2023/09/29 04:55:41;;;;;;;53.90;20.13;;;;;;;;;;10411738;22;20080;-92
2023/09/29 04:59:44;;;;;;;69.32;23.33;;;;;;;;;;10439458;22;20098;-92
2023/09/29 05:03:48;;;;;;;57.33;23.00;;;;;;;;;;10440873;22;20019;-88
2023/09/29 05:07:51;;;;;;;67.68;23.08;;;;;;;;;;10442408;22;20015;-90
2023/09/29 05:11:55;;;;;;;68.55;23.15;;;;;;;;;;10443495;22;20023;-92
2023/09/29 05:15:59;;;;;;;60.60;21.45;;;;;;;;;;10441734;22;20019;-91
2023/09/29 05:20:02;;;;;;;63.47;23.98;;;;;;;;;;10441946;22;20016;-92
2023/09/29 05:24:06;;;;;;;59.70;21.98;;;;;;;;;;10440130;22;20023;-90
2023/09/29 05:28:10;;;;;;;58.83;22.00;;;;;;;;;;10457054;22;20482;-89
2023/09/29 05:32:13;;;;;;;63.33;23.63;;;;;;;;;;10411371;22;20042;-88
2023/09/29 05:36:16;;;;;;;61.17;24.13;;;;;;;;;;10436825;22;20047;-88
2023/09/29 05:40:19;;;;;;;67.00;24.23;;;;;;;;;;10410523;22;20077;-90
2023/09/29 05:44:24;;;;;;;58.70;22.23;;;;;;;;;;10439489;22;20026;-88
2023/09/29 05:48:27;;;;;;;70.22;22.45;;;;;;;;;;10412327;22;20026;-91
2023/09/29 05:52:30;;;;;;;59.17;21.98;;;;;;;;;;10440300;22;20019;-93
2023/09/29 05:56:34;;;;;;;70.18;23.88;;;;;;;;;;10441419;22;20019;-90
2023/09/29 06:00:41;;;;;;;42.15;19.48;;;;;;;;;;10441786;22;20038;-90
2023/09/29 06:04:44;;;;;;;40.90;18.13;;;;;;;;;;10441448;22;20090;-90
2023/09/29 06:08:47;;;;;;;43.85;22.75;;;;;;;;;;10441818;22;20015;-91
2023/09/29 06:12:50;;;;;;;34.10;18.23;;;;;;;;;;10441849;22;20086;-96
2023/09/29 06:16:55;;;;;;;34.95;12.20;;;;;;;;;;10439239;22;20015;-92
2023/09/29 06:20:58;;;;;;;23.85;9.25;;;;;;;;;;10440970;22;20015;-95
2023/09/29 06:25:00;;;;;;;32.20;8.75;;;;;;;;;;10441594;22;20029;-90
2023/09/29 06:29:05;;;;;;;19.88;8.63;;;;;;;;;;10441474;22;20015;-91
2023/09/29 06:33:10;;;;;;;21.33;8.50;;;;;;;;;;10458235;22;20022;-94
2023/09/29 06:37:13;;;;;;;23.38;8.30;;;;;;;;;;10439843;22;20019;-93
2023/09/29 06:41:16;;;;;;;17.23;7.40;;;;;;;;;;10438325;22;20019;-91
2023/09/29 06:45:19;;;;;;;22.85;8.05;;;;;;;;;;10441705;22;20022;-93
2023/09/29 06:49:24;;;;;;;12.40;7.60;;;;;;;;;;10414557;22;20448;-91
2023/09/29 06:53:28;;;;;;;11.70;7.00;;;;;;;;;;10440698;22;20455;-90
2023/09/29 06:57:31;;;;;;;18.27;7.40;;;;;;;;;;10437424;22;20399;-94
2023/09/29 07:01:34;;;;;;;15.80;8.30;;;;;;;;;;10441164;22;20015;-91
2023/09/29 07:05:39;;;;;;;20.02;9.57;;;;;;;;;;10441115;22;20324;-92
2023/09/29 07:09:42;;;;;;;13.27;6.97;;;;;;;;;;10440974;22;20019;-92
2023/09/29 07:13:45;;;;;;;18.88;9.00;;;;;;;;;;10441519;22;20347;-93
2023/09/29 07:17:48;;;;;;;12.82;8.25;;;;;;;;;;10441804;22;20022;-94
2023/09/29 07:21:52;;;;;;;15.43;9.00;;;;;;;;;;10439945;22;20100;-90
2023/09/29 07:25:55;;;;;;;13.10;7.80;;;;;;;;;;10438819;22;20094;-92
2023/09/29 07:29:58;;;;;;;14.82;7.63;;;;;;;;;;10440404;22;20026;-92
2023/09/29 07:34:02;;;;;;;14.27;8.73;;;;;;;;;;10436818;22;20019;-91
2023/09/29 07:38:07;;;;;;;16.45;8.45;;;;;;;;;;10437696;22;20015;-92
2023/09/29 07:42:10;;;;;;;16.65;8.50;;;;;;;;;;10438788;22;20026;-90
2023/09/29 07:46:14;;;;;;;13.70;8.18;;;;;;;;;;10441159;22;20023;-90
2023/09/29 07:50:17;;;;;;;9.35;5.47;;;;;;;;;;10455405;22;20112;-90
2023/09/29 07:54:22;;;;;;;9.60;5.57;;;;;;;;;;10487666;22;20006;-94
2023/09/29 07:58:25;;;;;;;7.90;5.07;;;;;;;;;;10488449;22;20010;-89
2023/09/29 08:02:28;;;;;;;10.23;5.20;;;;;;;;;;10477348;22;20006;-89
2023/09/29 08:06:32;;;;;;;8.75;4.80;;;;;;;;;;10483149;22;20066;-94
2023/09/29 08:10:45;;;;;;;8.57;5.00;;;;;;;;;;10468382;22;20015;-93
2023/09/29 08:14:50;;;;;;;8.43;4.80;;;;;;;;;;10481379;22;20019;-90
2023/09/29 08:18:53;;;;;;;7.75;4.57;;;;;;;;;;10458075;22;20058;-89
2023/09/29 08:22:56;;;;;;;9.18;4.88;;;;;;;;;;10439597;22;20023;-88
2023/09/29 08:27:03;;;;;;;8.93;5.25;;;;;;;;;;10447748;22;20029;-96
2023/09/29 08:31:15;;;;;;;11.10;5.10;;;;;;;;;;10454816;22;20447;-90
2023/09/29 08:35:18;;;;;;;10.43;5.78;;;;;;;;;;10457908;22;20015;-89
2023/09/29 08:39:23;;;;;;;10.63;5.30;;;;;;;;;;10451168;22;20019;-88
2023/09/29 08:43:30;;;;;;;7.65;5.20;;;;;;;;;;10463263;22;20011;-96
2023/09/29 08:47:37;;;;;;;12.43;5.00;;;;;;;;;;10468816;22;20023;-88
2023/09/29 08:51:46;;;;;;;9.48;5.10;;;;;;;;;;10463413;22;20026;-93
2023/09/29 08:55:50;;;;;;;11.93;4.93;;;;;;;;;;10465257;22;20016;-87
2023/09/29 08:59:55;;;;;;;9.25;4.85;;;;;;;;;;10443772;22;20064;-88
2023/09/29 09:03:58;;;;;;;6.57;4.70;;;;;;;;;;10462035;22;20015;-87
2023/09/29 09:08:01;;;;;;;13.25;4.57;;;;;;;;;;10444614;22;20043;-89
2023/09/29 09:12:06;;;;;;;9.02;4.97;;;;;;;;;;10442476;22;20043;-89
2023/09/29 09:16:11;;;;;;;9.63;4.22;;;;;;;;;;10442923;22;20015;-89
2023/09/29 09:20:17;;;;;;;9.95;4.78;;;;;;;;;;10443653;22;20420;-87
2023/09/29 09:24:21;;;;;;;7.72;4.50;;;;;;;;;;10461670;22;20019;-94
2023/09/29 09:28:30;;;;;;;7.38;4.90;;;;;;;;;;10481957;22;20015;-93
2023/09/29 09:32:35;;;;;;;9.03;4.70;;;;;;;;;;10436194;22;20020;-89
2023/09/29 09:36:53;;;;;;;8.02;4.90;;;;;;;;;;10478842;22;20025;-91
2023/09/29 09:40:57;;;;;;;9.30;4.60;;;;;;;;;;10477998;22;20019;-96
2023/09/29 09:45:01;;;;;;;9.55;4.93;;;;;;;;;;10456600;22;20015;-90
2023/09/29 09:49:14;;;;;;;11.77;5.20;;;;;;;;;;10462197;22;20019;-90
2023/09/29 09:53:27;;;;;;;9.48;4.57;;;;;;;;;;10477733;22;20460;-92
2023/09/29 09:57:38;;;;;;;13.60;5.53;;;;;;;;;;10460598;22;20026;-91
2023/09/29 10:01:48;;;;;;;9.25;5.47;;;;;;;;;;10461644;22;20015;-91
2023/09/29 10:05:57;;;;;;;11.02;5.07;;;;;;;;;;10383796;22;20023;-93
2023/09/29 10:10:04;;;;;;;9.88;5.55;;;;;;;;;;10474625;22;20019;-89
2023/09/29 10:14:11;;;;;;;9.73;5.32;;;;;;;;;;10386349;22;20027;-94
2023/09/29 10:18:17;;;;;;;11.38;5.18;;;;;;;;;;10384844;22;20077;-89
2023/09/29 10:22:29;;;;;;;11.18;5.28;;;;;;;;;;10457489;22;20023;-92
2023/09/29 10:26:49;;;;;;;8.35;5.45;;;;;;;;;;10464980;22;20043;-89
2023/09/29 10:30:52;;;;;;;10.98;5.55;;;;;;;;;;10468295;22;20019;-89
2023/09/29 10:35:05;;;;;;;12.40;5.82;;;;;;;;;;10469023;22;20057;-88
2023/09/29 10:39:13;;;;;;;9.40;4.75;;;;;;;;;;10484883;22;20042;-89
2023/09/29 10:43:18;;;;;;;8.40;5.35;;;;;;;;;;10486183;22;20022;-89
2023/09/29 10:47:34;;;;;;;14.23;5.15;;;;;;;;;;10491935;22;20015;-95
2023/09/29 10:51:42;;;;;;;8.38;5.00;;;;;;;;;;10461361;22;20025;-92
2023/09/29 11:00:46;;;;;;;13.27;6.25;;;;;;;;;;10324792;23;20032;-92
2023/09/29 11:05:08;;;;;;;8.73;5.40;;;;;;;;;;10245790;23;20397;-89
2023/09/29 11:09:32;;;;;;;9.00;4.75;;;;;;;;;;10314333;23;20036;-90
2023/09/29 11:13:51;;;;;;;15.48;5.45;;;;;;;;;;10314168;23;20076;-88
2023/09/29 11:17:55;;;;;;;8.93;5.13;;;;;;;;;;10328290;23;20666;-89
2023/09/29 11:22:05;;;;;;;10.05;5.45;;;;;;;;;;10308548;23;20048;-91
2023/09/29 11:26:13;;;;;;;8.00;4.90;;;;;;;;;;10307266;23;20084;-88
2023/09/29 11:30:29;;;;;;;11.30;5.40;;;;;;;;;;10373055;22;20083;-91
2023/09/29 11:34:35;;;;;;;11.45;5.00;;;;;;;;;;10474500;22;20023;-88
2023/09/29 11:38:38;;;;;;;9.15;4.63;;;;;;;;;;10452198;22;20027;-89
2023/09/29 11:42:45;;;;;;;12.45;5.40;;;;;;;;;;10449411;22;20107;-87
2023/09/29 11:46:52;;;;;;;7.82;5.70;;;;;;;;;;10469650;22;20340;-90
2023/09/29 11:50:57;;;;;;;9.90;6.03;;;;;;;;;;10457493;22;20045;-88
2023/09/29 11:55:01;;;;;;;8.98;5.07;;;;;;;;;;10369732;22;20699;-85
2023/09/29 11:59:04;;;;;;;12.70;6.72;;;;;;;;;;10452642;22;20078;-93
2023/09/29 12:03:09;;;;;;;11.75;5.28;;;;;;;;;;10373966;22;20023;-87
2023/09/29 12:07:12;;;;;;;11.30;5.53;;;;;;;;;;10460281;22;20019;-91
2023/09/29 12:11:20;;;;;;;7.22;5.32;;;;;;;;;;10433344;22;20046;-89
2023/09/29 12:15:23;;;;;;;11.23;5.20;;;;;;;;;;10472289;22;20042;-88
2023/09/29 12:19:27;;;;;;;10.43;5.07;;;;;;;;;;10422561;22;20019;-90
2023/09/29 12:23:31;;;;;;;12.38;5.18;;;;;;;;;;10449195;22;20443;-89
2023/09/29 12:27:35;;;;;;;11.30;5.57;;;;;;;;;;10294374;23;20024;-89
2023/09/29 12:31:39;;;;;;;12.75;5.38;;;;;;;;;;10306678;23;20042;-87
2023/09/29 12:35:46;;;;;;;8.40;5.65;;;;;;;;;;10296097;23;20631;-89
2023/09/29 12:39:50;;;;;;;10.38;5.70;;;;;;;;;;10294903;23;20025;-90
2023/09/29 12:43:55;;;;;;;13.25;5.50;;;;;;;;;;10254825;23;20022;-91
2023/09/29 12:47:59;;;;;;;11.00;5.60;;;;;;;;;;10151811;23;20018;-95
2023/09/29 12:52:04;;;;;;;13.00;5.63;;;;;;;;;;10153412;23;20096;-87
2023/09/29 12:56:09;;;;;;;9.98;5.43;;;;;;;;;;10245228;23;20049;-92
2023/09/29 13:00:19;;;;;;;9.63;5.40;;;;;;;;;;10244963;23;20026;-89
2023/09/29 13:04:25;;;;;;;10.32;5.47;;;;;;;;;;10161720;23;20083;-88
2023/09/29 13:08:35;;;;;;;10.80;5.80;;;;;;;;;;10154523;23;20022;-89
2023/09/29 13:12:40;;;;;;;12.50;5.35;;;;;;;;;;10147048;23;20026;-91
2023/09/29 13:16:44;;;;;;;11.25;5.47;;;;;;;;;;10146088;23;20014;-90
2023/09/29 13:20:48;;;;;;;9.15;5.65;;;;;;;;;;10146589;23;20399;-89
2023/09/29 13:24:53;;;;;;;14.57;5.35;;;;;;;;;;10202457;22;20025;-89
2023/09/29 13:28:57;;;;;;;9.25;5.45;;;;;;;;;;10454643;22;20015;-90
2023/09/29 13:33:02;;;;;;;12.07;5.50;;;;;;;;;;10458596;22;20015;-89
2023/09/29 13:37:08;;;;;;;8.63;5.25;;;;;;;;;;10469450;22;20011;-88
2023/09/29 13:41:14;;;;;;;10.88;5.70;;;;;;;;;;10460081;22;20321;-90
2023/09/29 13:45:17;;;;;;;9.80;5.80;;;;;;;;;;10464182;22;20035;-88
2023/09/29 13:49:50;;;;;;;14.13;5.50;;;;;;;;;;10435004;22;20038;-89
2023/09/29 13:53:55;;;;;;;16.08;5.53;;;;;;;;;;10444720;22;20019;-86
2023/09/29 13:58:00;;;;;;;9.30;5.28;;;;;;;;;;10471678;22;20003;-82
2023/09/29 14:02:07;;;;;;;8.93;5.45;;;;;;;;;;10466276;22;20063;-90
2023/09/29 14:06:15;;;;;;;12.43;5.32;;;;;;;;;;10472650;22;20023;-86
2023/09/29 14:10:18;;;;;;;8.23;5.13;;;;;;;;;;10475655;22;20023;-92
2023/09/29 14:14:23;;;;;;;9.20;5.20;;;;;;;;;;10451711;22;20019;-88
2023/09/29 14:18:25;;;;;;;8.70;5.35;;;;;;;;;;10454631;22;20038;-89
2023/09/29 14:22:29;;;;;;;11.88;5.13;;;;;;;;;;10457060;22;20467;-93
2023/09/29 14:26:32;;;;;;;8.20;4.90;;;;;;;;;;10446778;22;20019;-90
2023/09/29 14:30:37;;;;;;;10.73;4.93;;;;;;;;;;10445930;22;20344;-89
2023/09/29 14:34:40;;;;;;;9.15;5.10;;;;;;;;;;10459670;22;20015;-91
2023/09/29 14:38:43;;;;;;;8.05;5.07;;;;;;;;;;10450171;22;20050;-91
2023/09/29 14:42:47;;;;;;;7.93;4.72;;;;;;;;;;10447020;22;20437;-94
2023/09/29 14:46:52;;;;;;;8.90;4.80;;;;;;;;;;10427528;22;20026;-94
2023/09/29 14:50:55;;;;;;;13.50;5.13;;;;;;;;;;10455945;22;20019;-94
2023/09/29 14:54:58;;;;;;;13.40;5.57;;;;;;;;;;10457599;22;20443;-92
2023/09/29 14:59:04;;;;;;;8.45;4.93;;;;;;;;;;10458945;22;20046;-91
2023/09/29 15:03:09;;;;;;;9.20;5.20;;;;;;;;;;10467043;22;20015;-89
2023/09/29 15:07:12;;;;;;;8.52;5.50;;;;;;;;;;10457117;22;20015;-89
2023/09/29 15:11:19;;;;;;;9.45;4.88;;;;;;;;;;10432179;22;20023;-91
2023/09/29 15:15:22;;;;;;;10.48;6.03;;;;;;;;;;10476769;22;20069;-89
2023/09/29 15:19:26;;;;;;;11.77;5.35;;;;;;;;;;10453328;22;20019;-91
2023/09/29 15:23:30;;;;;;;12.23;6.05;;;;;;;;;;10451573;22;20023;-91
2023/09/29 15:27:33;;;;;;;10.23;6.25;;;;;;;;;;10450310;22;20027;-93
2023/09/29 15:31:40;;;;;;;9.30;5.75;;;;;;;;;;10447853;22;20019;-94
2023/09/29 15:35:51;;;;;;;13.43;5.80;;;;;;;;;;10448027;22;20027;-92
2023/09/29 15:40:05;;;;;;;13.27;6.55;;;;;;;;;;10437845;22;20027;-92
2023/09/29 15:48:38;;;;;;;9.75;6.38;;;;;;;;;;10432908;22;20027;-94
2023/09/29 15:52:52;;;;;;;12.18;6.45;;;;;;;;;;10475141;22;20023;-91
2023/09/29 15:57:06;;;;;;;11.05;6.18;;;;;;;;;;10479211;22;20030;-95
2023/09/29 16:01:12;;;;;;;15.52;7.68;;;;;;;;;;10470150;22;20076;-91
2023/09/29 16:05:16;;;;;;;20.67;9.20;;;;;;;;;;10469709;22;20015;-95
2023/09/29 16:09:26;;;;;;;14.70;8.18;;;;;;;;;;10447388;22;20019;-90
2023/09/29 16:13:32;;;;;;;11.70;7.22;;;;;;;;;;10448482;22;20019;-90
2023/09/29 16:17:48;;;;;;;;;;;;;;;;;;;;;
2023/09/29 16:22:08;;;;;;;10.93;7.15;;;;;;;;;;10461920;22;20435;-89
2023/09/29 16:26:18;;;;;;;11.60;7.18;;;;;;;;;;10443423;22;20015;-93
2023/09/29 16:30:25;;;;;;;11.75;7.82;;;;;;;;;;10460310;22;20344;-94
2023/09/29 16:34:44;;;;;;;12.98;7.13;;;;;;;;;;10432700;22;20019;-93
2023/09/29 16:38:49;;;;;;;17.48;8.38;;;;;;;;;;10439668;22;20703;-93
2023/09/29 16:43:15;;;;;;;18.13;8.07;;;;;;;;;;10462434;22;20450;-92
2023/09/29 16:47:40;;;;;;;18.92;9.55;;;;;;;;;;10441365;22;20080;-94
2023/09/29 16:51:46;;;;;;;19.02;11.70;;;;;;;;;;10442734;22;20022;-94
2023/09/29 16:56:25;;;;;;;29.48;15.98;;;;;;;;;;10440121;22;20321;-93
2023/09/29 17:00:45;;;;;;;31.63;19.83;;;;;;;;;;10467605;22;20035;-89
2023/09/29 17:04:53;;;;;;;32.38;20.55;;;;;;;;;;10459649;22;20188;-87
2023/09/29 17:08:56;;;;;;;30.98;19.42;;;;;;;;;;10439643;22;20029;-94
2023/09/29 17:12:59;;;;;;;31.85;18.98;;;;;;;;;;10441134;22;20062;-95
2023/09/29 17:17:09;;;;;;;43.95;19.77;;;;;;;;;;10441153;22;20550;-94
2023/09/29 17:21:14;;;;;;;53.60;21.00;;;;;;;;;;10458070;22;20505;-93
2023/09/29 17:25:17;;;;;;;27.95;13.98;;;;;;;;;;10457863;22;20521;-93
2023/09/29 17:29:21;;;;;;;38.85;23.63;;;;;;;;;;10440494;22;20095;-92
2023/09/29 17:33:27;;;;;;;36.15;25.10;;;;;;;;;;10439415;22;20020;-93
2023/09/29 17:37:30;;;;;;;29.30;20.00;;;;;;;;;;10458640;22;20046;-95
2023/09/29 17:41:32;;;;;;;14.65;11.43;;;;;;;;;;10415252;22;20415;-92
2023/09/29 17:45:37;;;;;;;34.05;22.27;;;;;;;;;;10444337;22;20016;-94
2023/09/29 17:49:44;;;;;;;36.90;23.92;;;;;;;;;;10443217;22;20094;-92
2023/09/29 17:53:49;;;;;;;32.60;19.33;;;;;;;;;;10459711;22;20018;-91
2023/09/29 17:57:54;;;;;;;37.80;21.25;;;;;;;;;;10442691;22;20094;-93
2023/09/29 18:01:59;;;;;;;49.20;24.30;;;;;;;;;;10443459;22;20387;-94
2023/09/29 18:06:08;;;;;;;38.40;20.52;;;;;;;;;;10442930;22;20455;-93
2023/09/29 18:10:13;;;;;;;39.25;22.80;;;;;;;;;;10461120;22;20067;-91
2023/09/29 18:14:18;;;;;;;33.78;19.17;;;;;;;;;;10458874;22;20026;-92
2023/09/29 18:18:23;;;;;;;22.90;14.52;;;;;;;;;;10442220;22;20011;-92
2023/09/29 18:22:28;;;;;;;24.02;14.43;;;;;;;;;;10442576;22;20019;-93
2023/09/29 18:26:36;;;;;;;23.38;14.88;;;;;;;;;;10457690;22;20451;-94
2023/09/29 18:30:49;;;;;;;20.17;13.95;;;;;;;;;;10459707;22;20042;-94
2023/09/29 18:34:56;;;;;;;22.52;13.63;;;;;;;;;;10457877;22;20019;-91
2023/09/29 18:43:30;;;;;;;22.30;13.93;;;;;;;;;;10386453;22;20058;-91
2023/09/29 18:47:45;;;;;;;22.20;13.43;;;;;;;;;;10140407;23;20018;-91
2023/09/29 18:51:50;;;;;;;24.77;15.45;;;;;;;;;;10140788;23;20073;-91
2023/09/29 18:55:57;;;;;;;21.58;13.82;;;;;;;;;;10141143;23;20073;-92
2023/09/29 19:00:08;;;;;;;21.58;14.35;;;;;;;;;;10158255;23;20022;-91
2023/09/29 19:04:12;;;;;;;25.83;14.75;;;;;;;;;;10173399;23;20022;-91
2023/09/29 19:08:18;;;;;;;26.83;15.65;;;;;;;;;;10145908;23;20014;-91
2023/09/29 19:12:30;;;;;;;26.60;15.73;;;;;;;;;;10115738;23;20029;-92
2023/09/29 19:16:50;;;;;;;26.95;15.98;;;;;;;;;;10139906;23;20026;-92
2023/09/29 19:20:55;;;;;;;23.88;15.68;;;;;;;;;;10140614;23;20458;-92
2023/09/29 19:24:59;;;;;;;33.78;17.08;;;;;;;;;;10140008;23;20061;-92
2023/09/29 19:33:27;;;;;;;29.58;17.10;;;;;;;;;;10135316;23;20029;-92
2023/09/29 19:42:44;;;;;;;29.65;17.13;;;;;;;;;;10156934;23;20022;-92
2023/09/29 19:46:48;;;;;;;25.40;16.60;;;;;;;;;;10181358;23;20033;-91
2023/09/29 19:51:05;;;;;;;39.83;18.33;;;;;;;;;;10163114;23;20029;-91
2023/09/29 19:55:15;;;;;;;27.75;17.38;;;;;;;;;;10189070;23;20109;-91
2023/09/29 19:59:26;;;;;;;29.10;17.75;;;;;;;;;;10338953;22;20023;-90
2023/09/29 20:03:31;;;;;;;29.35;17.63;;;;;;;;;;10439844;22;20094;-91
2023/09/29 20:07:37;;;;;;;32.20;18.48;;;;;;;;;;10440010;22;20435;-90
2023/09/29 20:11:52;;;;;;;34.00;19.10;;;;;;;;;;10440423;22;20027;-91
2023/09/29 20:15:57;;;;;;;37.20;20.25;;;;;;;;;;10437329;22;20570;-91
2023/09/29 20:20:02;;;;;;;36.83;20.30;;;;;;;;;;10430937;22;20026;-92
2023/09/29 20:24:09;;;;;;;36.47;18.73;;;;;;;;;;10440050;22;20443;-91
2023/09/29 20:28:13;;;;;;;35.10;20.40;;;;;;;;;;10439863;22;20072;-91
2023/09/29 20:32:27;;;;;;;33.22;19.00;;;;;;;;;;10439783;22;20019;-91
2023/09/29 20:36:33;;;;;;;35.63;19.30;;;;;;;;;;10457103;22;20023;-90
2023/09/29 20:40:39;;;;;;;34.85;18.45;;;;;;;;;;10457410;22;20090;-90
2023/09/29 20:44:45;;;;;;;30.90;17.88;;;;;;;;;;10439753;22;20064;-90
2023/09/29 20:48:48;;;;;;;29.42;19.23;;;;;;;;;;10456946;22;20020;-91
2023/09/29 20:52:51;;;;;;;31.67;18.95;;;;;;;;;;10439389;22;20035;-92
2023/09/29 20:57:14;;;;;;;34.05;19.05;;;;;;;;;;10439509;22;20419;-90
2023/09/29 21:01:19;;;;;;;30.30;18.23;;;;;;;;;;10439124;22;20097;-91
2023/09/29 21:05:24;;;;;;;26.73;16.95;;;;;;;;;;10439704;22;20069;-91
2023/09/29 21:09:27;;;;;;;28.00;16.77;;;;;;;;;;10439247;22;20080;-92
2023/09/29 21:13:32;;;;;;;34.85;17.88;;;;;;;;;;10439244;22;20177;-92
2023/09/29 21:17:36;;;;;;;27.23;17.60;;;;;;;;;;10439317;22;20481;-91
2023/09/29 21:21:39;;;;;;;30.42;17.17;;;;;;;;;;10439613;22;20098;-91
2023/09/29 21:25:42;;;;;;;29.58;17.52;;;;;;;;;;10439564;22;20015;-91
2023/09/29 21:29:46;;;;;;;30.02;17.90;;;;;;;;;;10439030;22;20076;-92
2023/09/29 21:33:50;;;;;;;27.55;16.73;;;;;;;;;;10439461;22;20177;-92
2023/09/29 21:37:53;;;;;;;29.80;17.38;;;;;;;;;;10439165;22;20022;-91
2023/09/29 21:41:56;;;;;;;27.98;17.17;;;;;;;;;;10439377;22;20483;-91
2023/09/29 21:46:00;;;;;;;29.20;17.77;;;;;;;;;;10439044;22;20067;-90
2023/09/29 21:50:03;;;;;;;30.15;16.10;;;;;;;;;;10449626;22;20042;-91
2023/09/29 21:54:07;;;;;;;28.25;16.55;;;;;;;;;;10445101;22;20030;-92
2023/09/29 21:58:10;;;;;;;28.98;17.23;;;;;;;;;;10443224;22;20003;-91
2023/09/29 22:02:15;;;;;;;30.48;17.95;;;;;;;;;;10445676;22;20088;-92
2023/09/29 22:06:18;;;;;;;30.42;17.83;;;;;;;;;;10437784;22;20092;-91
2023/09/29 22:10:21;;;;;;;28.23;16.40;;;;;;;;;;10437945;22;20462;-92
2023/09/29 22:14:24;;;;;;;31.52;17.98;;;;;;;;;;10438461;22;20460;-92
2023/09/29 22:18:28;;;;;;;32.75;17.05;;;;;;;;;;10445502;22;20025;-92
2023/09/29 22:22:34;;;;;;;32.22;18.50;;;;;;;;;;10439884;22;20397;-92
2023/09/29 22:26:49;;;;;;;30.80;17.00;;;;;;;;;;10461978;22;20041;-92
2023/09/29 22:30:59;;;;;;;31.85;15.10;;;;;;;;;;10442262;22;20026;-92
2023/09/29 22:35:04;;;;;;;29.88;18.50;;;;;;;;;;10459276;22;20335;-92
2023/09/29 22:39:15;;;;;;;30.00;17.98;;;;;;;;;;10458965;22;20035;-92
2023/09/29 22:44:01;;;;;;;28.88;17.80;;;;;;;;;;10440171;22;20043;-91
2023/09/29 22:48:10;;;;;;;37.95;20.08;;;;;;;;;;10459047;22;20651;-92
2023/09/29 22:52:15;;;;;;;34.58;18.85;;;;;;;;;;10442167;22;20021;-92
2023/09/29 22:56:18;;;;;;;37.50;20.65;;;;;;;;;;10442690;22;20019;-92
2023/09/29 23:00:23;;;;;;;40.38;20.63;;;;;;;;;;10441632;22;20023;-94
2023/09/29 23:04:26;;;;;;;35.05;19.23;;;;;;;;;;10445612;22;20035;-91
2023/09/29 23:08:31;;;;;;;36.83;20.42;;;;;;;;;;10444085;22;20529;-92
2023/09/29 23:12:40;;;;;;;46.38;21.95;;;;;;;;;;10414186;22;20076;-91
2023/09/29 23:16:43;;;;;;;41.80;19.90;;;;;;;;;;10441193;22;20101;-92
2023/09/29 23:20:47;;;;;;;41.53;20.63;;;;;;;;;;10441326;22;20046;-91
2023/09/29 23:24:53;;;;;;;36.80;20.10;;;;;;;;;;10441344;22;20320;-91
2023/09/29 23:28:56;;;;;;;39.10;18.88;;;;;;;;;;10441474;22;20054;-92
2023/09/29 23:32:59;;;;;;;39.65;19.92;;;;;;;;;;10413767;22;20328;-91
2023/09/29 23:37:02;;;;;;;39.13;19.17;;;;;;;;;;10441222;22;20473;-91
2023/09/29 23:41:10;;;;;;;40.83;20.25;;;;;;;;;;10440906;22;20023;-91
2023/09/29 23:45:13;;;;;;;38.92;21.02;;;;;;;;;;10458627;22;20023;-91
2023/09/29 23:49:16;;;;;;;33.00;17.48;;;;;;;;;;10441126;22;20041;-92
2023/09/29 23:53:22;;;;;;;38.55;18.35;;;;;;;;;;10441196;22;20393;-91
2023/09/29 23:57:26;;;;;;;33.92;19.00;;;;;;;;;;10441050;22;20026;-92
